createdAt,value
2022-08-28T00:00:15.724Z,59.38
2022-08-28T00:03:18.157Z,60.40
2022-08-28T00:06:20.757Z,62.54
2022-08-28T00:09:23.308Z,64.50
2022-08-28T00:12:26.628Z,66.57
2022-08-28T00:15:32.702Z,67.65
2022-08-28T00:18:35.253Z,67.66
2022-08-28T00:21:37.871Z,68.05
2022-08-28T00:24:40.072Z,68.56
2022-08-28T00:27:55.305Z,67.60
2022-08-28T00:30:59.223Z,67.40
2022-08-28T00:34:04.468Z,68.11
2022-08-28T00:37:06.689Z,68.26
2022-08-28T00:40:09.982Z,69.24
2022-08-28T00:43:40.048Z,68.71
2022-08-28T00:46:43.814Z,67.87
2022-08-28T00:49:51.059Z,66.23
2022-08-28T00:52:57.472Z,67.69
2022-08-28T00:56:04.114Z,67.83
2022-08-28T00:59:15.941Z,68.08
2022-08-28T01:02:18.989Z,68.86
2022-08-28T01:05:22.205Z,69.24
2022-08-28T01:08:24.402Z,69.72
2022-08-28T01:11:29.012Z,70.06
2022-08-28T01:14:33.833Z,68.02
2022-08-28T01:17:36.902Z,68.44
2022-08-28T01:20:51.651Z,68.56
2022-08-28T01:23:58.540Z,69.03
2022-08-28T01:27:00.697Z,68.86
2022-08-28T01:30:04.628Z,68.89
2022-08-28T01:33:07.698Z,67.68
2022-08-28T01:36:12.557Z,67.51
2022-08-28T01:39:17.708Z,66.73
2022-08-28T01:42:20.692Z,65.80
2022-08-28T01:45:25.773Z,66.16
2022-08-28T01:48:30.281Z,65.51
2022-08-28T01:51:34.956Z,66.08
2022-08-28T01:54:37.739Z,66.05
2022-08-28T01:57:46.905Z,65.77
2022-08-28T02:00:49.794Z,65.92
2022-08-28T02:03:53.071Z,66.58
2022-08-28T02:06:55.990Z,67.11
2022-08-28T02:09:58.372Z,67.50
2022-08-28T02:13:01.473Z,67.49
2022-08-28T02:16:06.388Z,66.98
2022-08-28T02:19:09.637Z,67.14
2022-08-28T02:22:17.001Z,66.40
2022-08-28T02:25:19.241Z,67.04
2022-08-28T02:28:21.677Z,66.90
2022-08-28T02:31:24.134Z,66.68
2022-08-28T02:34:26.626Z,66.47
2022-08-28T02:37:29.038Z,67.00
2022-08-28T02:40:32.468Z,67.94
2022-08-28T02:43:35.186Z,67.98
2022-08-28T02:46:37.628Z,68.08
2022-08-28T02:49:39.973Z,68.60
2022-08-28T02:52:43.577Z,68.50
2022-08-28T02:55:46.551Z,68.88
2022-08-28T02:58:49.243Z,68.96
2022-08-28T03:01:51.579Z,69.15
2022-08-28T03:04:55.427Z,69.25
2022-08-28T03:07:57.642Z,69.09
2022-08-28T03:11:00.511Z,68.67
2022-08-28T03:14:03.822Z,69.14
2022-08-28T03:17:07.437Z,68.81
2022-08-28T03:20:11.734Z,68.41
2022-08-28T03:23:26.276Z,69.29
2022-08-28T03:26:28.611Z,67.47
2022-08-28T03:29:31.667Z,67.07
2022-08-28T03:32:34.175Z,67.11
2022-08-28T03:35:37.599Z,67.53
2022-08-28T03:38:41.807Z,67.90
2022-08-28T03:41:44.210Z,67.97
2022-08-28T03:44:49.147Z,68.55
2022-08-28T03:47:51.539Z,68.17
2022-08-28T03:50:54.678Z,69.16
2022-08-28T03:53:59.530Z,69.18
2022-08-28T03:57:01.662Z,69.94
2022-08-28T04:00:07.043Z,69.00
2022-08-28T04:03:14.058Z,68.06
2022-08-28T04:06:16.941Z,67.68
2022-08-28T04:09:19.106Z,67.30
2022-08-28T04:12:21.520Z,67.71
2022-08-28T04:15:23.631Z,68.29
2022-08-28T04:18:27.280Z,68.42
2022-08-28T04:21:29.489Z,68.48
2022-08-28T04:24:32.083Z,68.11
2022-08-28T04:27:34.974Z,68.79
2022-08-28T04:30:37.374Z,68.67
2022-08-28T04:33:39.757Z,69.05
2022-08-28T04:36:42.147Z,69.58
2022-08-28T04:39:44.375Z,69.74
2022-08-28T04:42:47.516Z,69.42
2022-08-28T04:45:49.906Z,69.37
2022-08-28T04:48:52.384Z,69.60
2022-08-28T04:51:54.993Z,69.43
2022-08-28T04:54:57.673Z,69.63
2022-08-28T04:57:59.805Z,69.52
2022-08-28T05:01:09.342Z,69.26
2022-08-28T05:04:12.374Z,70.23
2022-08-28T05:07:14.794Z,70.82
2022-08-28T05:10:16.933Z,70.10
2022-08-28T05:13:19.796Z,71.20
2022-08-28T05:16:22.722Z,70.73
2022-08-28T05:19:26.960Z,70.40
2022-08-28T05:22:31.358Z,69.86
2022-08-28T05:25:39.770Z,69.85
2022-08-28T05:28:42.106Z,69.99
2022-08-28T05:31:46.282Z,69.12
2022-08-28T05:34:48.673Z,68.05
2022-08-28T05:37:52.538Z,68.06
2022-08-28T05:40:54.678Z,68.56
2022-08-28T05:44:03.496Z,68.11
2022-08-28T05:47:05.727Z,67.43
2022-08-28T05:50:08.662Z,68.45
2022-08-28T05:53:11.078Z,68.12
2022-08-28T05:56:16.125Z,68.17
2022-08-28T05:59:18.313Z,68.44
2022-08-28T06:02:20.880Z,67.96
2022-08-28T06:05:23.289Z,68.59
2022-08-28T06:08:25.439Z,68.78
2022-08-28T06:11:31.027Z,68.44
2022-08-28T06:14:33.513Z,68.62
2022-08-28T06:17:38.442Z,68.01
2022-08-28T06:20:42.258Z,67.92
2022-08-28T06:23:44.773Z,67.79
2022-08-28T06:26:46.920Z,66.98
2022-08-28T06:29:49.396Z,66.72
2022-08-28T06:32:51.492Z,65.35
2022-08-28T06:35:56.122Z,65.03
2022-08-28T06:39:00.081Z,64.70
2022-08-28T06:42:02.542Z,64.11
2022-08-28T06:45:05.073Z,64.36
2022-08-28T06:48:09.103Z,63.64
2022-08-28T06:51:12.381Z,63.41
2022-08-28T06:54:21.826Z,63.78
2022-08-28T06:57:26.140Z,60.70
2022-08-28T07:00:28.749Z,61.47
2022-08-28T07:03:30.925Z,60.74
2022-08-28T07:06:36.226Z,60.98
2022-08-28T07:09:38.371Z,63.17
2022-08-28T07:12:40.823Z,60.82
2022-08-28T07:15:43.020Z,60.88
2022-08-28T07:18:46.240Z,61.82
2022-08-28T07:21:48.627Z,59.70
2022-08-28T07:24:51.010Z,58.46
2022-08-28T07:27:53.578Z,59.51
2022-08-28T07:30:59.534Z,60.88
2022-08-28T07:34:01.729Z,61.23
2022-08-28T07:37:06.187Z,60.61
2022-08-28T07:40:09.847Z,59.33
2022-08-28T07:43:32.374Z,58.38
2022-08-28T07:46:37.660Z,59.15
2022-08-28T07:49:40.647Z,55.02
2022-08-28T07:52:42.916Z,55.06
2022-08-28T07:55:45.495Z,55.11
2022-08-28T07:58:48.444Z,55.97
2022-08-28T08:01:51.517Z,56.43
2022-08-28T08:04:54.801Z,55.98
2022-08-28T08:07:56.943Z,53.96
2022-08-28T08:11:06.167Z,52.16
2022-08-28T08:14:08.717Z,50.48
2022-08-28T08:17:11.348Z,50.66
2022-08-28T08:20:13.464Z,50.60
2022-08-28T08:23:15.890Z,48.42
2022-08-28T08:26:21.578Z,47.05
2022-08-28T08:29:24.514Z,46.05
2022-08-28T08:32:26.864Z,44.99
2022-08-28T08:35:29.291Z,45.43
2022-08-28T08:38:32.909Z,46.28
2022-08-28T08:41:51.193Z,47.62
2022-08-28T08:44:56.918Z,45.73
2022-08-28T08:48:00.775Z,44.22
2022-08-28T08:51:26.774Z,43.53
2022-08-28T08:54:29.167Z,43.33
2022-08-28T08:57:33.827Z,43.95
2022-08-28T09:01:17.382Z,43.40
2022-08-28T09:04:40.117Z,42.49
2022-08-28T09:07:57.107Z,41.19
2022-08-28T09:11:03.354Z,41.97
2022-08-28T09:14:05.658Z,41.26
2022-08-28T09:17:10.268Z,41.59
2022-08-28T09:20:19.167Z,41.21
2022-08-28T09:23:25.502Z,41.33
2022-08-28T09:26:32.377Z,39.30
2022-08-28T09:29:43.265Z,38.74
2022-08-28T09:33:00.857Z,38.96
2022-08-28T09:36:24.196Z,38.40
2022-08-28T09:39:31.761Z,37.79
2022-08-28T09:42:52.168Z,38.11
2022-08-28T09:45:59.512Z,37.92
2022-08-28T09:49:09.991Z,37.86
2022-08-28T09:52:24.487Z,38.13
2022-08-28T09:55:35.980Z,38.50
2022-08-28T09:58:45.314Z,39.00
2022-08-28T10:01:51.223Z,38.80
2022-08-28T10:05:03.130Z,38.59
2022-08-28T10:08:27.905Z,39.45
2022-08-28T10:11:44.470Z,39.19
2022-08-28T10:14:51.166Z,39.73
2022-08-28T10:18:05.384Z,39.83
2022-08-28T10:21:32.125Z,38.56
2022-08-28T10:24:40.638Z,38.48
2022-08-28T10:27:45.516Z,37.42
2022-08-28T10:31:26.849Z,38.47
2022-08-28T10:34:54.387Z,38.96
2022-08-28T10:38:05.618Z,38.49
2022-08-28T10:41:21.844Z,39.08
2022-08-28T10:44:40.240Z,38.02
2022-08-28T10:47:56.910Z,38.34
2022-08-28T10:51:13.616Z,37.78
2022-08-28T10:54:29.281Z,38.38
2022-08-28T10:57:52.966Z,38.32
2022-08-28T11:01:01.057Z,38.26
2022-08-28T11:04:08.509Z,37.34
2022-08-28T11:07:15.334Z,38.08
2022-08-28T11:10:45.320Z,37.60
2022-08-28T11:13:57.217Z,38.15
2022-08-28T11:17:14.204Z,38.15
2022-08-28T11:20:28.930Z,38.45
2022-08-28T11:24:03.359Z,37.92
2022-08-28T11:27:11.671Z,38.05
2022-08-28T11:30:36.233Z,37.13
2022-08-28T11:33:50.678Z,37.16
2022-08-28T11:36:58.959Z,38.52
2022-08-28T11:40:17.400Z,37.77
2022-08-28T11:43:23.539Z,37.61
2022-08-28T11:46:27.615Z,37.53
2022-08-28T11:49:33.231Z,38.38
2022-08-28T11:53:10.092Z,36.38
2022-08-28T11:56:32.473Z,36.05
2022-08-28T11:59:47.847Z,36.00
2022-08-28T12:03:10.441Z,35.96
2022-08-28T12:06:13.424Z,36.44
2022-08-28T12:09:39.449Z,36.79
2022-08-28T12:12:44.583Z,36.78
2022-08-28T12:16:04.243Z,37.03
2022-08-28T12:19:07.506Z,36.59
2022-08-28T12:22:12.366Z,35.94
2022-08-28T12:25:37.714Z,36.65
2022-08-28T12:28:54.219Z,37.40
2022-08-28T12:32:12.940Z,36.97
2022-08-28T12:35:25.659Z,36.92
2022-08-28T12:38:31.710Z,36.25
2022-08-28T12:41:33.869Z,36.64
2022-08-28T12:44:36.318Z,38.06
2022-08-28T12:47:43.471Z,38.27
2022-08-28T12:50:45.875Z,37.11
2022-08-28T12:53:51.356Z,37.69
2022-08-28T12:56:53.828Z,38.08
2022-08-28T13:00:09.811Z,38.05
2022-08-28T13:03:12.429Z,38.19
2022-08-28T13:06:24.109Z,38.70
2022-08-28T13:09:28.142Z,39.06
2022-08-28T13:12:56.213Z,39.71
2022-08-28T13:16:05.743Z,40.29
2022-08-28T13:19:08.028Z,40.39
2022-08-28T13:22:38.937Z,40.32
2022-08-28T13:25:41.115Z,40.58
2022-08-28T13:28:44.014Z,40.47
2022-08-28T13:32:08.844Z,40.66
2022-08-28T13:35:17.383Z,41.34
2022-08-28T13:38:22.196Z,41.92
2022-08-28T13:41:29.749Z,42.04
2022-08-28T13:44:35.141Z,42.49
2022-08-28T13:47:37.682Z,42.38
2022-08-28T13:50:46.481Z,42.54
2022-08-28T13:53:50.448Z,42.08
2022-08-28T13:56:54.790Z,42.10
2022-08-28T13:59:57.180Z,42.17
2022-08-28T14:03:17.731Z,42.81
2022-08-28T14:06:20.107Z,43.50
2022-08-28T14:09:27.000Z,43.37
2022-08-28T14:12:33.143Z,43.00
2022-08-28T14:15:35.582Z,43.96
2022-08-28T14:18:37.970Z,43.25
2022-08-28T14:21:41.412Z,43.08
2022-08-28T14:24:43.801Z,43.14
2022-08-28T14:27:45.945Z,42.58
2022-08-28T14:30:51.354Z,42.47
2022-08-28T14:33:53.679Z,42.73
2022-08-28T14:36:56.163Z,43.82
2022-08-28T14:39:58.333Z,43.70
2022-08-28T14:43:00.739Z,43.96
2022-08-28T14:46:03.324Z,44.06
2022-08-28T14:49:09.014Z,44.97
2022-08-28T14:52:11.423Z,44.50
2022-08-28T14:55:14.857Z,43.98
2022-08-28T14:58:20.984Z,44.19
2022-08-28T15:01:49.676Z,44.17
2022-08-28T15:04:51.798Z,44.20
2022-08-28T15:07:54.200Z,44.24
2022-08-28T15:10:56.763Z,44.93
2022-08-28T15:13:59.166Z,45.17
2022-08-28T15:17:01.782Z,45.39
2022-08-28T15:20:05.539Z,45.79
2022-08-28T15:23:08.639Z,45.77
2022-08-28T15:26:15.156Z,44.87
2022-08-28T15:29:18.324Z,45.10
2022-08-28T15:32:20.933Z,45.18
2022-08-28T15:35:23.060Z,45.32
2022-08-28T15:38:25.843Z,46.15
2022-08-28T15:41:29.326Z,45.62
2022-08-28T15:44:31.728Z,45.86
2022-08-28T15:47:34.071Z,45.89
2022-08-28T15:50:37.262Z,45.89
2022-08-28T15:53:39.381Z,46.32
2022-08-28T15:56:41.945Z,46.75
2022-08-28T15:59:50.065Z,47.54
2022-08-28T16:02:55.802Z,47.22
2022-08-28T16:05:58.891Z,47.78
2022-08-28T16:09:01.277Z,48.20
2022-08-28T16:12:04.084Z,48.69
2022-08-28T16:15:07.203Z,49.02
2022-08-28T16:18:10.081Z,49.81
2022-08-28T16:21:12.994Z,49.56
2022-08-28T16:24:15.438Z,50.01
2022-08-28T16:27:18.017Z,49.84
2022-08-28T16:30:24.424Z,50.68
2022-08-28T16:33:27.057Z,50.40
2022-08-28T16:36:30.048Z,50.70
2022-08-28T16:39:32.181Z,51.02
2022-08-28T16:42:35.124Z,50.88
2022-08-28T16:45:37.431Z,51.32
2022-08-28T16:48:40.465Z,51.61
2022-08-28T16:51:42.597Z,52.50
2022-08-28T16:54:47.518Z,52.74
2022-08-28T16:57:51.439Z,52.43
2022-08-28T17:00:56.004Z,52.78
2022-08-28T17:03:59.099Z,53.62
2022-08-28T17:07:01.804Z,53.15
2022-08-28T17:10:06.357Z,53.27
2022-08-28T17:13:08.951Z,53.22
2022-08-28T17:16:12.524Z,52.84
2022-08-28T17:19:15.731Z,52.94
2022-08-28T17:22:32.979Z,53.40
2022-08-28T17:25:35.739Z,52.99
2022-08-28T17:28:38.031Z,53.27
2022-08-28T17:31:42.016Z,53.21
2022-08-28T17:34:44.571Z,53.60
2022-08-28T17:37:47.122Z,53.27
2022-08-28T17:40:49.250Z,53.12
2022-08-28T17:43:52.002Z,53.18
2022-08-28T17:46:54.231Z,52.70
2022-08-28T17:49:56.739Z,52.96
2022-08-28T17:52:58.833Z,53.22
2022-08-28T17:56:04.846Z,52.89
2022-08-28T17:59:07.702Z,53.51
2022-08-28T18:02:10.192Z,53.69
2022-08-28T18:05:14.460Z,53.43
2022-08-28T18:08:16.643Z,53.42
2022-08-28T18:11:19.334Z,53.36
2022-08-28T18:14:21.606Z,53.91
2022-08-28T18:17:24.250Z,53.84
2022-08-28T18:20:26.526Z,53.69
2022-08-28T18:23:29.706Z,53.70
2022-08-28T18:26:31.971Z,53.55
2022-08-28T18:29:36.659Z,53.89
2022-08-28T18:32:38.797Z,54.31
2022-08-28T18:35:46.286Z,54.32
2022-08-28T18:38:51.578Z,55.03
2022-08-28T18:41:54.904Z,54.93
2022-08-28T18:44:56.995Z,55.01
2022-08-28T18:48:01.187Z,55.72
2022-08-28T18:51:06.877Z,55.47
2022-08-28T18:54:10.278Z,56.27
2022-08-28T18:57:14.867Z,56.01
2022-08-28T19:00:18.395Z,56.53
2022-08-28T19:03:21.459Z,56.53
2022-08-28T19:06:24.050Z,56.87
2022-08-28T19:09:32.092Z,56.63
2022-08-28T19:12:34.938Z,56.56
2022-08-28T19:15:37.290Z,56.92
2022-08-28T19:18:39.729Z,56.91
2022-08-28T19:21:41.992Z,58.08
2022-08-28T19:24:44.551Z,56.34
2022-08-28T19:27:46.860Z,56.53
2022-08-28T19:30:53.450Z,57.13
2022-08-28T19:33:57.182Z,57.14
2022-08-28T19:37:01.317Z,57.62
2022-08-28T19:40:06.094Z,57.57
2022-08-28T19:43:10.732Z,57.41
2022-08-28T19:46:20.386Z,57.46
2022-08-28T19:49:23.806Z,57.48
2022-08-28T19:52:25.941Z,57.44
2022-08-28T19:55:28.735Z,58.06
2022-08-28T19:58:30.889Z,58.06
2022-08-28T20:01:37.766Z,57.79
2022-08-28T20:04:40.226Z,57.86
2022-08-28T20:07:43.645Z,57.92
2022-08-28T20:10:46.959Z,58.05
2022-08-28T20:13:49.500Z,57.77
2022-08-28T20:16:54.352Z,57.72
2022-08-28T20:20:02.341Z,57.63
2022-08-28T20:23:06.102Z,57.82
2022-08-28T20:26:10.589Z,57.63
2022-08-28T20:29:13.245Z,58.17
2022-08-28T20:32:15.377Z,58.42
2022-08-28T20:35:18.583Z,58.99
2022-08-28T20:38:24.297Z,58.91
2022-08-28T20:41:28.419Z,59.77
2022-08-28T20:44:30.652Z,59.94
2022-08-28T20:47:33.136Z,60.41
2022-08-28T20:50:35.263Z,61.17
2022-08-28T20:53:38.452Z,61.48
2022-08-28T20:56:41.134Z,61.92
2022-08-28T20:59:46.027Z,61.94
2022-08-28T21:02:48.174Z,62.18
2022-08-28T21:05:50.949Z,62.16
2022-08-28T21:08:53.557Z,62.94
2022-08-28T21:11:56.094Z,62.51
2022-08-28T21:14:58.670Z,63.04
2022-08-28T21:18:02.520Z,63.38
2022-08-28T21:21:06.154Z,64.20
2022-08-28T21:24:11.326Z,63.78
2022-08-28T21:27:14.014Z,64.18
2022-08-28T21:30:18.577Z,64.63
2022-08-28T21:33:21.006Z,64.56
2022-08-28T21:36:23.436Z,65.53
2022-08-28T21:39:25.553Z,66.15
2022-08-28T21:42:28.575Z,67.10
2022-08-28T21:45:30.746Z,67.25
2022-08-28T21:48:36.152Z,68.27
2022-08-28T21:51:38.291Z,69.32
2022-08-28T21:54:40.673Z,69.20
2022-08-28T21:57:42.864Z,69.65
2022-08-28T22:00:50.918Z,69.70
2022-08-28T22:03:55.035Z,70.46
2022-08-28T22:06:57.143Z,70.41
2022-08-28T22:09:59.582Z,71.52
2022-08-28T22:13:01.793Z,71.92
2022-08-28T22:16:05.758Z,72.91
2022-08-28T22:19:07.913Z,73.07
2022-08-28T22:22:28.693Z,73.52
2022-08-28T22:25:30.985Z,73.87
2022-08-28T22:28:34.212Z,73.94
2022-08-28T22:31:41.412Z,74.12
2022-08-28T22:34:49.604Z,74.46
2022-08-28T22:37:51.907Z,74.80
2022-08-28T22:40:54.343Z,74.68
2022-08-28T22:43:56.594Z,75.15
2022-08-28T22:46:59.072Z,74.86
2022-08-28T22:50:01.231Z,74.77
2022-08-28T22:53:04.217Z,76.03
2022-08-28T22:56:08.147Z,75.46
2022-08-28T22:59:10.824Z,76.42
2022-08-28T23:02:13.114Z,76.60
2022-08-28T23:05:15.796Z,77.22
2022-08-28T23:08:18.486Z,77.01
2022-08-28T23:11:21.290Z,76.37
2022-08-28T23:14:23.660Z,75.72
2022-08-28T23:17:26.142Z,75.90
2022-08-28T23:20:28.823Z,76.35
2022-08-28T23:23:31.203Z,76.00
2022-08-28T23:26:33.874Z,75.99
2022-08-28T23:29:36.302Z,76.07
2022-08-28T23:32:38.452Z,74.87
2022-08-28T23:35:41.870Z,73.81
2022-08-28T23:38:44.040Z,73.38
2022-08-28T23:41:46.592Z,74.08
2022-08-28T23:44:48.979Z,74.10
2022-08-28T23:47:51.685Z,73.96
2022-08-28T23:50:54.195Z,74.43
2022-08-28T23:53:57.069Z,73.84
2022-08-28T23:56:59.198Z,74.01
